Perryopolis, PA (15473)

3:05 PM EST on February 13, 2016 (GMT -0500)
Rostraver Township | | Change Station
CLOSE
Current Station
Personal Weather Station
Location: Belle Vernon, PA
Elevation: 994 ft
Nearby Weather Stations
Active Advisory: Wind Chill Advisory Active Notice: Public Information Statement

Elev 994 ft 40.15 °N, 79.79 °W | Updated 16 seconds ago

Overcast
Overcast
13.6 °F
Feels Like 7 °F
N
4.2
Wind Variable Wind from WSW
Gusts 4.9 mph

Today
High -- | Low -- °F
--% Chance of Precip.
Yesterday
High -- | Low -- °F
Precip. -- in
Pressure 30.40 in
Visibility 10.0 miles
Clouds Mostly Cloudy 4500 ft
Mostly Cloudy 5000 ft
Overcast 6500 ft
Windchill 7 °F
Dew Point -11 °F
Humidity 31%
Rainfall 0.00 in
Snow Depth Not available.
7:15 AM 5:51 PM
Waxing Crescent, 33% visible
METAR KAGC 131953Z 32012G19KT 10SM BKN045 BKN050 OVC065 M11/M21 A3031 RMK AO2 SNB1855E22 SLP293 VIS N 2 P0000 T11111206
Pressure 30.40 in
Visibility 10.0 miles
Clouds Mostly Cloudy 4500 ft
Mostly Cloudy 5000 ft
Overcast 6500 ft
Windchill 7 °F
Dew Point -11 °F
Humidity 31%
Rainfall 0.00 in
Snow Depth Not available.
7:15 AM 5:51 PM
Waxing Crescent, 33% visible
METAR KAGC 131953Z 32012G19KT 10SM BKN045 BKN050 OVC065 M11/M21 A3031 RMK AO2 SNB1855E22 SLP293 VIS N 2 P0000 T11111206

10-Day Weather Forecast

Almanac

Astronomy

Feb. 13, 2016 Rise Set
Actual Time
Civil Twilight
Nautical Twilight
Astronomical Twilight
Moon
Length of Visible Light
Length of Day
Tomorrow will be .
, % of the Moon is Illuminated

Today's Extremes

State Highs State Lows

Community

WunderPhotos

Upload Photos

1,892,653 photos uploaded!

WunderBlog® & News

Nearby

Air Quality

  Air Quality AQ Index Pollutant
Not available.

Snow Depth

Station Depth Elevation

Earthquake Activity

City Distance Mag. Time & Date
Minimum magnitude displayed is 2.5.

Coastal Water Temperatures

Place Temperature

Stations

Nearby Weather Stations

Station Location Temp. Windchill Dew Point Humidity Wind Precip. Elev Updated Type
                   

Watches & Warnings

Wind Chill Advisory
Issued: 2:50 PM EST Feb. 13, 2016 – National Weather Service

... Wind Chill Advisory remains in effect until 9 am EST Sunday...

* wind chill... as low as 14 below due to temperatures 4 below to
12 above zero... and winds west 5 to 15 mph with gusts up to 25
mph.

* Impacts... frost bite and hypothermia are possible if
precautions are not taken.